createdAt,value
2022-08-10T00:04:42.621Z,9.4
2022-08-10T00:09:49.967Z,9.3
2022-08-10T00:14:42.541Z,9.4
2022-08-10T00:20:02.332Z,9.3
2022-08-10T00:24:43.234Z,9.4
2022-08-10T00:29:42.852Z,9.3
2022-08-10T00:34:42.578Z,9.3
2022-08-10T00:39:42.653Z,9.3
2022-08-10T00:44:42.867Z,9.3
2022-08-10T00:49:42.570Z,9.3
2022-08-10T00:54:42.513Z,9.3
2022-08-10T00:59:57.546Z,9.3
2022-08-10T01:04:59.060Z,9.2
2022-08-10T01:09:42.505Z,9.3
2022-08-10T01:14:42.496Z,9.2
2022-08-10T01:19:42.493Z,9.3
2022-08-10T01:24:42.490Z,9.3
2022-08-10T01:29:42.771Z,9.3
2022-08-10T01:34:42.551Z,9.2
2022-08-10T01:39:42.536Z,9.3
2022-08-10T01:44:42.764Z,9.2
2022-08-10T01:49:42.524Z,9.4
2022-08-10T01:54:42.467Z,9.4
2022-08-10T01:59:42.743Z,9.3
2022-08-10T02:04:42.513Z,9.4
2022-08-10T02:09:42.461Z,9.3
2022-08-10T02:14:42.749Z,9.4
2022-08-10T02:19:42.493Z,9.3
2022-08-10T02:24:42.443Z,9.2
2022-08-10T02:29:42.609Z,9.2
2022-08-10T02:34:42.861Z,9.3
2022-08-10T02:39:42.610Z,9.3
2022-08-10T02:45:16.818Z,9.2
2022-08-10T02:49:42.757Z,9.2
2022-08-10T02:54:42.595Z,9.3
2022-08-10T02:59:42.421Z,9.3
2022-08-10T03:04:54.402Z,9.2
2022-08-10T03:09:42.731Z,9.2
2022-08-10T03:14:42.575Z,9.1
2022-08-10T03:20:04.171Z,9.2
2022-08-10T03:24:42.694Z,9.2
2022-08-10T03:30:23.641Z,9.1
2022-08-10T03:34:42.577Z,9.1
2022-08-10T03:39:42.595Z,9.1
2022-08-10T03:44:45.193Z,9.1
2022-08-10T03:49:42.434Z,9.1
2022-08-10T03:54:42.500Z,9.1
2022-08-10T03:59:42.371Z,9.1
2022-08-10T04:04:42.509Z,9.1
2022-08-10T04:09:53.749Z,9.1
2022-08-10T04:14:49.187Z,9
2022-08-10T04:19:42.411Z,9.1
2022-08-10T04:24:42.359Z,9.1
2022-08-10T04:29:42.662Z,9
2022-08-10T04:34:42.433Z,9
2022-08-10T04:39:42.408Z,9.1
2022-08-10T04:44:42.793Z,9
2022-08-10T04:49:55.780Z,9
2022-08-10T04:54:42.492Z,9.1
2022-08-10T04:59:42.501Z,9.1
2022-08-10T05:04:42.476Z,9.2
2022-08-10T05:10:00.794Z,9.2
2022-08-10T05:14:42.392Z,9.2
2022-08-10T05:20:01.425Z,9.4
2022-08-10T05:24:42.307Z,9.5
2022-08-10T05:29:42.309Z,9.5
2022-08-10T05:34:42.302Z,9.6
2022-08-10T05:39:42.316Z,9.6
2022-08-10T05:44:42.586Z,9.7
2022-08-10T05:49:42.421Z,9.7
2022-08-10T05:54:42.664Z,9.6
2022-08-10T06:00:09.653Z,9.8
2022-08-10T06:04:42.550Z,9.7
2022-08-10T06:09:58.434Z,9.9
2022-08-10T06:14:42.429Z,9.9
2022-08-10T06:19:42.268Z,9.9
2022-08-10T06:24:57.248Z,9.9
2022-08-10T06:29:42.308Z,10
2022-08-10T06:34:42.255Z,10
2022-08-10T06:39:42.573Z,9.9
2022-08-10T06:44:42.296Z,10.1
2022-08-10T06:49:42.243Z,10.1
2022-08-10T06:59:42.306Z,10.4
2022-08-10T07:04:42.283Z,10.5
2022-08-10T07:09:42.271Z,10.4
2022-08-10T07:14:42.227Z,10.4
2022-08-10T07:19:49.427Z,10.4
2022-08-10T07:24:42.724Z,10.5
2022-08-10T07:29:53.169Z,10.4
2022-08-10T07:34:42.213Z,10.4
2022-08-10T07:39:57.761Z,10.5
2022-08-10T07:44:42.252Z,10.7
2022-08-10T07:49:42.201Z,10.5
2022-08-10T07:54:42.197Z,10.6
2022-08-10T07:59:42.625Z,10.6
2022-08-10T08:04:42.515Z,10.8
2022-08-10T08:09:56.979Z,10.6
2022-08-10T08:14:42.261Z,10.8
2022-08-10T08:19:45.958Z,10.8
2022-08-10T08:24:42.946Z,11
2022-08-10T08:29:42.456Z,10.7
2022-08-10T08:34:42.219Z,11.1
2022-08-10T08:39:44.233Z,11.3
2022-08-10T08:44:42.444Z,11.2
2022-08-10T08:50:04.666Z,10.9
2022-08-10T08:54:42.249Z,11
2022-08-10T08:59:42.468Z,10.7
2022-08-10T09:04:42.185Z,10.7
2022-08-10T09:09:42.236Z,10.7
2022-08-10T09:14:42.242Z,10.9
2022-08-10T09:19:42.436Z,10.9
2022-08-10T09:24:42.179Z,10.7
2022-08-10T09:29:42.120Z,10.9
2022-08-10T09:36:17.932Z,10.8
2022-08-10T09:40:06.362Z,10.8
2022-08-10T09:44:57.814Z,10.8
2022-08-10T09:49:54.678Z,10.7
2022-08-10T09:54:42.313Z,11
2022-08-10T09:59:59.825Z,11.1
2022-08-10T10:04:42.146Z,11.1
2022-08-10T10:09:42.093Z,11.5
2022-08-10T10:14:42.398Z,11
2022-08-10T10:19:42.389Z,10.8
2022-08-10T10:29:57.814Z,11.1
2022-08-10T10:34:42.434Z,11.2
2022-08-10T10:39:42.159Z,11
2022-08-10T10:44:42.471Z,11.2
2022-08-10T10:49:42.064Z,11.2
2022-08-10T10:54:42.387Z,11.2
2022-08-10T10:59:54.663Z,11.1
2022-08-10T11:04:42.052Z,11.5
2022-08-10T11:10:04.152Z,11.1
2022-08-10T11:14:42.137Z,11.6
2022-08-10T11:20:00.716Z,11.4
2022-08-10T11:24:49.155Z,11.3
2022-08-10T11:29:45.733Z,11.5
2022-08-10T11:34:47.892Z,11.4
2022-08-10T11:39:48.920Z,11.6
2022-08-10T11:44:42.021Z,11.6
2022-08-10T11:49:42.020Z,11.4
2022-08-10T11:54:42.323Z,11.4
2022-08-10T11:59:42.241Z,11.3
2022-08-10T12:04:42.005Z,11.2
2022-08-10T12:10:08.050Z,11.5
2022-08-10T12:14:41.997Z,11.3
2022-08-10T12:19:58.895Z,11.6
2022-08-10T12:29:41.987Z,11
2022-08-10T12:34:42.443Z,11.3
2022-08-10T12:39:42.478Z,11
2022-08-10T12:44:42.733Z,11
2022-08-10T12:49:42.021Z,11.2
2022-08-10T12:54:42.066Z,10.9
2022-08-10T12:59:43.061Z,10.9
2022-08-10T13:04:42.088Z,10.9
2022-08-10T13:09:55.803Z,11.3
2022-08-10T13:19:55.550Z,11.1
2022-08-10T13:24:41.951Z,10.5
2022-08-10T13:29:42.383Z,10.8
2022-08-10T13:34:44.840Z,10.7
2022-08-10T13:39:58.542Z,10.6
2022-08-10T13:44:41.937Z,10.7
2022-08-10T13:49:42.206Z,10.5
2022-08-10T13:54:41.996Z,10.5
2022-08-10T14:00:33.462Z,10.4
2022-08-10T14:04:42.206Z,10.5
2022-08-10T14:09:42.070Z,10.4
2022-08-10T14:14:41.910Z,10.3
2022-08-10T14:19:43.355Z,10.2
2022-08-10T14:24:42.202Z,10.2
2022-08-10T14:29:41.940Z,10.2
2022-08-10T14:34:59.792Z,9.9
2022-08-10T14:39:41.934Z,9.9
2022-08-10T14:44:41.886Z,9.9
2022-08-10T14:49:56.834Z,10.2
2022-08-10T14:54:41.929Z,10.2
2022-08-10T15:00:23.915Z,10.3
2022-08-10T15:04:42.043Z,10
2022-08-10T15:09:59.618Z,10.2
2022-08-10T15:14:43.797Z,10.3
2022-08-10T15:20:01.894Z,10.2
2022-08-10T15:24:42.309Z,9.9
2022-08-10T15:29:56.788Z,10
2022-08-10T15:40:22.830Z,10.2
2022-08-10T15:44:42.129Z,10.2
2022-08-10T15:49:42.156Z,10.3
2022-08-10T15:54:41.971Z,10.1
2022-08-10T15:59:41.828Z,9.9
2022-08-10T16:04:42.260Z,10
2022-08-10T16:10:11.688Z,10.2
2022-08-10T16:14:41.815Z,10
2022-08-10T16:19:41.817Z,10.3
2022-08-10T16:24:41.877Z,9.6
2022-08-10T16:29:51.705Z,9.7
2022-08-10T16:34:41.877Z,9.8
2022-08-10T16:39:57.386Z,9.6
2022-08-10T16:44:42.106Z,9.8
2022-08-10T16:49:42.125Z,10
2022-08-10T16:54:42.032Z,10
2022-08-10T16:59:41.787Z,10
2022-08-10T17:04:42.052Z,9.7
2022-08-10T17:09:41.828Z,9.7
2022-08-10T17:14:41.793Z,10
2022-08-10T17:19:42.081Z,10
2022-08-10T17:24:41.813Z,9.8
2022-08-10T17:29:53.921Z,9.8
2022-08-10T17:34:42.043Z,9.9
2022-08-10T17:39:41.835Z,9.7
2022-08-10T17:44:41.755Z,9.5
2022-08-10T17:54:41.836Z,9.4
2022-08-10T17:59:41.795Z,9.5
2022-08-10T18:04:42.671Z,9.5
2022-08-10T18:09:42.032Z,9.5
2022-08-10T18:14:41.797Z,9.6
2022-08-10T18:19:41.731Z,9.7
2022-08-10T18:24:42.040Z,9.8
2022-08-10T18:29:41.765Z,9.8
2022-08-10T18:34:41.712Z,10
2022-08-10T18:39:41.785Z,10.2
2022-08-10T18:49:41.746Z,9.7
2022-08-10T18:54:44.623Z,9.7
2022-08-10T18:59:41.978Z,9.7
2022-08-10T19:04:41.747Z,9.7
2022-08-10T19:09:46.930Z,9.6
2022-08-10T19:14:42.025Z,9.7
2022-08-10T19:19:41.978Z,9.7
2022-08-10T19:24:41.979Z,9.6
2022-08-10T19:30:05.172Z,9.4
2022-08-10T19:34:41.722Z,9.6
2022-08-10T19:39:50.770Z,9.4
2022-08-10T19:44:42.035Z,9.5
2022-08-10T19:49:41.714Z,9.5
2022-08-10T19:54:41.651Z,9.6
2022-08-10T20:00:02.445Z,9.5
2022-08-10T20:04:41.693Z,9.6
2022-08-10T20:09:41.638Z,9.4
2022-08-10T20:14:41.931Z,9.4
2022-08-10T20:19:52.153Z,9.5
2022-08-10T20:24:41.940Z,9.4
2022-08-10T20:29:58.064Z,9.4
2022-08-10T20:34:41.719Z,9.4
2022-08-10T20:39:41.676Z,9.4
2022-08-10T20:44:41.905Z,9.3
2022-08-10T20:49:41.669Z,9.3
2022-08-10T20:54:41.608Z,9.4
2022-08-10T21:00:02.679Z,9.3
2022-08-10T21:04:41.675Z,9.2
2022-08-10T21:09:42.449Z,9.5
2022-08-10T21:14:41.594Z,9.5
2022-08-10T21:19:41.688Z,9.5
2022-08-10T21:24:41.899Z,9.5
2022-08-10T21:29:41.773Z,9.6
2022-08-10T21:34:50.720Z,9.6
2022-08-10T21:39:43.292Z,9.5
2022-08-10T21:44:41.760Z,9.5
2022-08-10T21:49:42.001Z,9.5
2022-08-10T21:54:41.732Z,9.4
2022-08-10T21:59:41.559Z,9.4
2022-08-10T22:04:44.679Z,9.3
2022-08-10T22:09:42.637Z,9.2
2022-08-10T22:14:41.990Z,9.2
2022-08-10T22:19:41.594Z,9.2
2022-08-10T22:24:41.707Z,9.2
2022-08-10T22:29:42.065Z,9.2
2022-08-10T22:34:41.539Z,9.1
2022-08-10T22:40:07.495Z,9.1
2022-08-10T22:44:41.526Z,9.2
2022-08-10T22:49:41.522Z,9.2
2022-08-10T22:54:41.520Z,9.1
2022-08-10T22:59:41.514Z,9
2022-08-10T23:04:44.889Z,9.2
2022-08-10T23:09:42.144Z,9.2
2022-08-10T23:14:41.825Z,9.2
2022-08-10T23:19:41.546Z,9.1
2022-08-10T23:24:41.494Z,8.9
2022-08-10T23:29:42.549Z,9.1
2022-08-10T23:34:41.899Z,9.1
2022-08-10T23:39:41.561Z,9
2022-08-10T23:44:41.486Z,9
2022-08-10T23:49:41.760Z,8.9
2022-08-10T23:54:41.564Z,8.9
2022-08-10T23:59:41.469Z,8.9
